Aredale, Iowa
Current Conditions -  °F | °C
As of 3:55 PM on Monday 22 Dec 2014 (Local Time) from KCCY Reporting Station
Haze Haze  
Wind Chill: 27°   Ceiling: 600
Heat Index: 36°   Visibility: 2.5mi
Dew Point: 36°   Wind: 13mph
Humidity: 100%   Direction: 100°E
Pressure: 29.54"   Gusts: 18mph
Location:  42.83°N, 93.01°W
Report Text: KCCY 222155Z AUTO 10011G16KT 2 1/2SM BR OVC006 02/02 A2954 RMK AO2 P0001
Loading
Personal Weather Stations






























Interactive Weather Map New forecast layout! Learn more

10-Day Weather Forecast

Advertisements
Track Severe Weather on mobile